createdAt,value
2019-03-28T00:00:31.821Z,3.41
2019-03-28T00:02:39.592Z,3.44
2019-03-28T00:04:47.311Z,3.55
2019-03-28T00:06:55.222Z,3.75
2019-03-28T00:09:07.687Z,3.75
2019-03-28T00:11:15.409Z,3.66
2019-03-28T00:13:22.984Z,3.56
2019-03-28T00:15:31.102Z,3.44
2019-03-28T00:17:38.791Z,3.46
2019-03-28T00:19:46.435Z,3.48
2019-03-28T00:21:54.128Z,3.52
2019-03-28T00:24:03.447Z,3.60
2019-03-28T00:26:11.250Z,3.61
2019-03-28T00:28:18.954Z,3.67
2019-03-28T00:30:26.701Z,3.73
2019-03-28T00:32:34.375Z,3.73
2019-03-28T00:34:42.145Z,3.82
2019-03-28T00:36:49.821Z,3.98
2019-03-28T00:38:57.590Z,3.91
2019-03-28T00:41:06.736Z,3.88
2019-03-28T00:43:14.411Z,3.76
2019-03-28T00:45:22.077Z,3.84
2019-03-28T00:47:29.794Z,3.80
2019-03-28T00:49:37.470Z,3.79
2019-03-28T00:51:45.156Z,3.78
2019-03-28T00:53:53.023Z,3.77
2019-03-28T00:56:00.777Z,3.79
2019-03-28T00:58:09.077Z,3.73
2019-03-28T01:00:17.879Z,3.76
2019-03-28T01:02:25.617Z,3.83
2019-03-28T01:04:33.293Z,3.92
2019-03-28T01:06:40.937Z,3.90
2019-03-28T01:08:48.701Z,4.02
2019-03-28T01:10:56.382Z,4.08
2019-03-28T01:13:04.170Z,4.25
2019-03-28T01:15:12.325Z,4.15
2019-03-28T01:17:20.076Z,4.17
2019-03-28T01:19:27.813Z,4.17
2019-03-28T01:21:35.490Z,4.36
2019-03-28T01:23:43.263Z,4.27
2019-03-28T01:25:50.940Z,4.31
2019-03-28T01:27:58.635Z,4.31
2019-03-28T01:30:10.161Z,4.49
2019-03-28T01:32:17.837Z,4.66
2019-03-28T01:34:25.515Z,4.84
2019-03-28T01:36:33.183Z,4.98
2019-03-28T01:38:40.961Z,5.09
2019-03-28T01:40:48.733Z,5.15
2019-03-28T01:42:56.405Z,5.23
2019-03-28T01:45:06.711Z,5.27
2019-03-28T01:47:14.579Z,5.30
2019-03-28T01:49:22.235Z,5.30
2019-03-28T01:51:29.943Z,5.29
2019-03-28T01:53:38.236Z,5.30
2019-03-28T01:55:46.253Z,5.25
2019-03-28T01:57:54.019Z,5.21
2019-03-28T02:00:02.622Z,5.23
2019-03-28T02:02:10.635Z,5.09
2019-03-28T02:04:18.382Z,5.07
2019-03-28T02:06:26.323Z,5.12
2019-03-28T02:08:34.202Z,5.14
2019-03-28T02:10:41.953Z,5.21
2019-03-28T02:12:49.758Z,5.12
2019-03-28T02:14:57.416Z,5.06
2019-03-28T02:17:05.191Z,4.97
2019-03-28T02:19:12.938Z,4.98
2019-03-28T02:21:20.684Z,4.88
2019-03-28T02:23:28.513Z,4.81
2019-03-28T02:25:36.186Z,4.93
2019-03-28T02:27:43.866Z,5.00
2019-03-28T02:29:51.786Z,5.11
2019-03-28T02:31:59.463Z,5.22
2019-03-28T02:34:07.134Z,5.09
2019-03-28T02:36:14.918Z,5.15
2019-03-28T02:38:22.680Z,5.03
2019-03-28T02:40:30.394Z,4.96
2019-03-28T02:42:38.297Z,4.99
2019-03-28T02:44:46.015Z,5.11
2019-03-28T02:46:53.692Z,5.14
2019-03-28T02:49:01.366Z,5.00
2019-03-28T02:51:09.062Z,4.92
2019-03-28T02:53:16.809Z,4.95
2019-03-28T02:55:24.519Z,4.92
2019-03-28T02:57:40.866Z,4.91
2019-03-28T02:59:41.635Z,4.95
2019-03-28T03:01:51.479Z,5.05
2019-03-28T03:03:59.315Z,5.15
2019-03-28T03:06:07.128Z,4.92
2019-03-28T03:08:14.870Z,4.85
2019-03-28T03:10:22.702Z,4.81
2019-03-28T03:12:30.563Z,4.93
2019-03-28T03:14:38.468Z,4.87
2019-03-28T03:16:46.282Z,4.89
2019-03-28T03:18:54.026Z,4.96
2019-03-28T03:21:01.802Z,4.93
2019-03-28T03:23:09.479Z,4.89
2019-03-28T03:25:17.302Z,4.86
2019-03-28T03:27:25.114Z,5.01
2019-03-28T03:29:32.786Z,5.15
2019-03-28T03:31:40.442Z,5.22
2019-03-28T03:33:48.121Z,4.82
2019-03-28T03:35:55.837Z,4.89
2019-03-28T03:38:03.512Z,4.99
2019-03-28T03:40:13.082Z,4.88
2019-03-28T03:42:20.833Z,5.02
2019-03-28T03:44:28.697Z,5.05
2019-03-28T03:46:36.392Z,4.81
2019-03-28T03:48:44.075Z,4.81
2019-03-28T03:50:53.006Z,4.94
2019-03-28T03:53:00.715Z,4.90
2019-03-28T03:55:09.006Z,5.13
2019-03-28T03:57:16.774Z,5.18
2019-03-28T03:59:25.569Z,5.08
2019-03-28T04:01:33.559Z,5.05
2019-03-28T04:03:42.100Z,4.96
2019-03-28T04:05:50.056Z,4.97
2019-03-28T04:07:57.793Z,5.13
2019-03-28T04:10:07.249Z,5.06
2019-03-28T04:12:16.762Z,5.06
2019-03-28T04:14:24.367Z,5.02
2019-03-28T04:16:32.142Z,5.12
2019-03-28T04:18:40.212Z,5.25
2019-03-28T04:20:48.060Z,5.43
2019-03-28T04:22:55.827Z,5.62
2019-03-28T04:25:04.126Z,5.76
2019-03-28T04:27:11.850Z,5.87
2019-03-28T04:29:19.692Z,5.93
2019-03-28T04:31:28.410Z,6.04
2019-03-28T04:33:36.132Z,6.07
2019-03-28T04:35:43.964Z,6.11
2019-03-28T04:37:51.727Z,5.76
2019-03-28T04:39:59.460Z,6.02
2019-03-28T04:42:07.365Z,6.10
2019-03-28T04:44:15.201Z,6.16
2019-03-28T04:46:23.105Z,6.13
2019-03-28T04:48:30.980Z,6.21
2019-03-28T04:50:38.894Z,6.17
2019-03-28T04:52:46.699Z,6.13
2019-03-28T04:54:55.353Z,6.24
2019-03-28T04:57:04.495Z,6.36
2019-03-28T04:59:12.402Z,6.45
2019-03-28T05:01:20.040Z,6.30
2019-03-28T05:03:27.971Z,6.10
2019-03-28T05:05:36.467Z,6.14
2019-03-28T05:07:44.202Z,5.94
2019-03-28T05:09:51.969Z,6.02
2019-03-28T05:11:59.872Z,5.97
2019-03-28T05:14:07.754Z,6.11
2019-03-28T05:16:15.519Z,6.19
2019-03-28T05:18:23.353Z,6.16
2019-03-28T05:20:31.159Z,5.79
2019-03-28T05:22:39.199Z,5.95
2019-03-28T05:24:46.999Z,5.85
2019-03-28T05:26:54.735Z,5.76
2019-03-28T05:29:02.492Z,5.84
2019-03-28T05:31:10.330Z,5.77
2019-03-28T05:33:18.147Z,5.73
2019-03-28T05:35:26.383Z,5.66
2019-03-28T05:37:34.350Z,5.60
2019-03-28T05:39:42.196Z,5.61
2019-03-28T05:41:50.169Z,5.61
2019-03-28T05:43:57.904Z,5.67
2019-03-28T05:46:05.634Z,5.72
2019-03-28T05:48:13.514Z,5.66
2019-03-28T05:50:22.498Z,5.77
2019-03-28T05:52:30.366Z,5.77
2019-03-28T05:54:38.129Z,5.72
2019-03-28T05:56:46.002Z,5.73
2019-03-28T05:58:54.248Z,5.75
2019-03-28T06:01:02.067Z,5.90
2019-03-28T06:03:09.814Z,5.86
2019-03-28T06:05:17.494Z,5.96
2019-03-28T06:07:25.516Z,6.10
2019-03-28T06:09:33.400Z,6.08
2019-03-28T06:11:41.082Z,5.82
2019-03-28T06:13:48.965Z,5.95
2019-03-28T06:15:56.728Z,6.14
2019-03-28T06:18:04.409Z,6.24
2019-03-28T06:20:12.927Z,6.17
2019-03-28T06:22:20.510Z,6.04
2019-03-28T06:24:28.191Z,5.83
2019-03-28T06:26:35.956Z,5.84
2019-03-28T06:28:43.708Z,5.85
2019-03-28T06:30:51.395Z,5.84
2019-03-28T06:32:59.153Z,5.87
2019-03-28T06:35:08.132Z,5.92
2019-03-28T06:37:16.111Z,5.91
2019-03-28T06:39:23.994Z,6.06
2019-03-28T06:41:31.756Z,6.10
2019-03-28T06:43:41.968Z,6.11
2019-03-28T06:45:48.851Z,6.38
2019-03-28T06:47:56.531Z,6.40
2019-03-28T06:50:08.381Z,6.32
2019-03-28T06:52:15.996Z,6.37
2019-03-28T06:54:24.374Z,6.19
2019-03-28T06:56:32.321Z,6.15
2019-03-28T06:58:40.093Z,6.35
2019-03-28T07:00:47.671Z,6.36
2019-03-28T07:02:55.354Z,6.43
2019-03-28T07:05:03.074Z,6.53
2019-03-28T07:07:10.817Z,6.52
2019-03-28T07:09:19.353Z,6.50
2019-03-28T07:11:27.200Z,6.53
2019-03-28T07:13:35.084Z,6.57
2019-03-28T07:15:42.728Z,6.63
2019-03-28T07:17:50.442Z,6.72
2019-03-28T07:19:58.251Z,6.58
2019-03-28T07:22:05.906Z,6.73
2019-03-28T07:24:13.732Z,6.75
2019-03-28T07:26:21.383Z,6.74
2019-03-28T07:28:29.134Z,6.75
2019-03-28T07:30:36.957Z,6.67
2019-03-28T07:32:44.765Z,6.67
2019-03-28T07:34:52.644Z,6.94
2019-03-28T07:37:00.421Z,6.90
2019-03-28T07:39:08.767Z,6.99
2019-03-28T07:41:16.715Z,6.88
2019-03-28T07:43:25.355Z,6.87
2019-03-28T07:45:34.579Z,6.99
2019-03-28T07:47:42.538Z,6.93
2019-03-28T07:49:51.408Z,7.12
2019-03-28T07:51:59.087Z,7.36
2019-03-28T07:54:06.897Z,7.19
2019-03-28T07:56:14.678Z,7.28
2019-03-28T07:58:22.458Z,7.22
2019-03-28T08:00:30.133Z,7.12
2019-03-28T08:02:38.305Z,7.03
2019-03-28T08:04:45.897Z,7.08
2019-03-28T08:06:53.466Z,7.03
2019-03-28T08:09:01.252Z,6.91
2019-03-28T08:11:11.586Z,6.85
2019-03-28T08:13:19.233Z,6.96
2019-03-28T08:15:27.075Z,6.88
2019-03-28T08:17:35.014Z,6.99
2019-03-28T08:19:42.587Z,6.94
2019-03-28T08:21:50.322Z,6.98
2019-03-28T08:23:58.076Z,6.95
2019-03-28T08:26:05.845Z,6.92
2019-03-28T08:28:13.633Z,6.85
2019-03-28T08:30:26.029Z,6.89
2019-03-28T08:32:34.656Z,6.90
2019-03-28T08:34:44.703Z,7.06
2019-03-28T08:36:53.923Z,7.00
2019-03-28T08:39:01.756Z,7.04
2019-03-28T08:41:11.112Z,7.07
2019-03-28T08:43:18.799Z,6.98
2019-03-28T08:45:26.575Z,7.05
2019-03-28T08:47:34.282Z,7.09
2019-03-28T08:49:41.958Z,7.15
2019-03-28T08:51:49.784Z,7.39
2019-03-28T08:53:58.552Z,7.49
2019-03-28T08:56:06.748Z,7.75
2019-03-28T08:58:14.416Z,7.73
2019-03-28T09:00:33.026Z,7.86
2019-03-28T09:02:32.598Z,8.00
2019-03-28T09:04:40.347Z,8.06
2019-03-28T09:06:48.154Z,8.22
2019-03-28T09:08:56.997Z,8.38
2019-03-28T09:11:05.116Z,8.29
2019-03-28T09:13:13.693Z,8.29
2019-03-28T09:15:21.583Z,8.26
2019-03-28T09:17:29.367Z,8.18
2019-03-28T09:19:38.999Z,8.26
2019-03-28T09:21:46.546Z,8.52
2019-03-28T09:23:54.257Z,8.67
2019-03-28T09:26:04.390Z,8.79
2019-03-28T09:28:11.207Z,8.69
2019-03-28T09:30:29.309Z,8.45
2019-03-28T09:32:37.576Z,8.51
2019-03-28T09:34:45.258Z,8.42
2019-03-28T09:36:54.186Z,8.74
2019-03-28T09:39:01.890Z,8.57
2019-03-28T09:41:11.079Z,8.71
2019-03-28T09:43:18.750Z,8.79
2019-03-28T09:45:26.873Z,8.85
2019-03-28T09:47:34.719Z,8.89
2019-03-28T09:49:42.370Z,9.01
2019-03-28T09:51:49.972Z,9.02
2019-03-28T09:53:57.774Z,9.29
2019-03-28T09:56:05.303Z,9.11
2019-03-28T09:58:13.092Z,9.06
2019-03-28T10:00:21.691Z,8.99
2019-03-28T10:02:29.416Z,8.97
2019-03-28T10:04:38.164Z,9.32
2019-03-28T10:06:45.912Z,9.21
2019-03-28T10:08:53.630Z,9.34
2019-03-28T10:11:01.410Z,9.46
2019-03-28T10:13:09.187Z,9.44
2019-03-28T10:15:18.404Z,9.38
2019-03-28T10:17:26.012Z,9.59
2019-03-28T10:19:33.767Z,9.74
2019-03-28T10:21:41.587Z,9.94
2019-03-28T10:23:49.467Z,10.03
2019-03-28T10:25:57.228Z,10.22
2019-03-28T10:28:05.084Z,9.96
2019-03-28T10:30:15.209Z,10.04
2019-03-28T10:32:22.892Z,10.23
2019-03-28T10:34:31.670Z,10.36
2019-03-28T10:36:39.512Z,10.04
2019-03-28T10:38:47.239Z,9.61
2019-03-28T10:40:54.980Z,9.39
2019-03-28T10:43:04.368Z,9.31
2019-03-28T10:45:12.202Z,9.17
2019-03-28T10:47:19.971Z,9.10
2019-03-28T10:49:28.744Z,8.96
2019-03-28T10:51:37.481Z,8.98
2019-03-28T10:53:45.161Z,8.87
2019-03-28T10:55:52.878Z,8.65
2019-03-28T10:58:00.541Z,8.67
2019-03-28T11:00:23.179Z,8.38
2019-03-28T11:02:19.487Z,8.27
2019-03-28T11:04:27.157Z,8.24
2019-03-28T11:06:34.938Z,8.15
2019-03-28T11:08:42.796Z,8.12
2019-03-28T11:10:50.741Z,8.06
2019-03-28T11:12:58.588Z,8.13
2019-03-28T11:15:07.705Z,8.12
2019-03-28T11:17:15.858Z,8.07
2019-03-28T11:19:23.529Z,8.19
2019-03-28T11:21:34.224Z,8.30
2019-03-28T11:23:41.656Z,8.33
2019-03-28T11:25:50.728Z,8.48
2019-03-28T11:27:58.502Z,8.46
2019-03-28T11:30:10.071Z,8.58
2019-03-28T11:32:18.684Z,8.70
2019-03-28T11:34:26.703Z,8.93
2019-03-28T11:36:34.345Z,9.09
2019-03-28T11:38:42.057Z,9.17
2019-03-28T11:40:49.770Z,9.44
2019-03-28T11:42:57.607Z,9.71
2019-03-28T11:45:09.937Z,9.57
2019-03-28T11:47:17.806Z,9.52
2019-03-28T11:49:25.515Z,9.55
2019-03-28T11:51:36.089Z,9.67
2019-03-28T11:53:42.694Z,9.54
2019-03-28T11:55:50.378Z,9.40
2019-03-28T11:57:58.156Z,9.30
2019-03-28T12:00:15.628Z,9.61
2019-03-28T12:02:25.309Z,9.78
2019-03-28T12:04:34.131Z,9.87
2019-03-28T12:06:41.831Z,9.91
2019-03-28T12:08:49.673Z,9.82
2019-03-28T12:10:57.345Z,9.96
2019-03-28T12:13:05.215Z,9.90
2019-03-28T12:15:14.184Z,9.74
2019-03-28T12:17:22.765Z,9.66
2019-03-28T12:19:30.454Z,9.91
2019-03-28T12:21:38.314Z,10.07
2019-03-28T12:23:45.957Z,10.22
2019-03-28T12:25:53.936Z,10.38
2019-03-28T12:28:01.867Z,10.57
2019-03-28T12:30:15.933Z,10.66
2019-03-28T12:32:23.383Z,10.63
2019-03-28T12:34:31.070Z,10.62
2019-03-28T12:36:38.908Z,10.47
2019-03-28T12:38:46.736Z,10.48
2019-03-28T12:40:54.419Z,10.46
2019-03-28T12:43:02.103Z,10.41
2019-03-28T12:45:11.818Z,10.41
2019-03-28T12:47:20.610Z,10.57
2019-03-28T12:49:28.302Z,10.49
2019-03-28T12:51:36.022Z,10.51
2019-03-28T12:53:43.804Z,10.65
2019-03-28T12:55:51.495Z,10.72
2019-03-28T12:57:59.273Z,10.81
2019-03-28T13:00:10.035Z,10.84
2019-03-28T13:02:28.642Z,10.92
2019-03-28T13:04:27.367Z,11.19
2019-03-28T13:06:35.321Z,11.26
2019-03-28T13:08:43.769Z,11.25
2019-03-28T13:10:51.513Z,11.39
2019-03-28T13:12:59.252Z,11.69
2019-03-28T13:15:08.753Z,11.61
2019-03-28T13:17:16.760Z,11.79
2019-03-28T13:19:24.909Z,11.88
2019-03-28T13:21:32.549Z,12.12
2019-03-28T13:23:40.354Z,12.23
2019-03-28T13:25:48.109Z,12.30
2019-03-28T13:27:55.809Z,12.45
2019-03-28T13:30:04.105Z,12.28
2019-03-28T13:32:11.935Z,12.45
2019-03-28T13:34:19.840Z,12.53
2019-03-28T13:36:27.639Z,12.59
2019-03-28T13:38:35.614Z,12.62
2019-03-28T13:40:43.362Z,12.64
2019-03-28T13:42:52.972Z,12.70
2019-03-28T13:45:00.576Z,12.63
2019-03-28T13:47:08.266Z,12.68
2019-03-28T13:49:15.887Z,12.46
2019-03-28T13:51:23.573Z,12.30
2019-03-28T13:53:39.382Z,12.09
2019-03-28T13:55:40.824Z,12.12
2019-03-28T13:57:48.569Z,12.34
2019-03-28T13:59:56.428Z,12.51
2019-03-28T14:02:06.736Z,12.50
2019-03-28T14:04:14.617Z,12.27
2019-03-28T14:06:22.485Z,12.01
2019-03-28T14:08:30.361Z,11.75
2019-03-28T14:10:38.069Z,11.69
2019-03-28T14:12:45.839Z,11.53
2019-03-28T14:14:53.625Z,11.50
2019-03-28T14:17:01.476Z,11.68
2019-03-28T14:19:09.264Z,11.63
2019-03-28T14:21:18.057Z,11.79
2019-03-28T14:23:25.820Z,11.85
2019-03-28T14:25:33.599Z,12.01
2019-03-28T14:27:41.455Z,12.34
2019-03-28T14:29:49.241Z,12.49
2019-03-28T14:31:59.807Z,12.67
2019-03-28T14:34:06.413Z,12.80
2019-03-28T14:36:14.092Z,12.90
2019-03-28T14:38:21.841Z,12.98
2019-03-28T14:40:29.697Z,12.96
2019-03-28T14:42:37.457Z,12.85
2019-03-28T14:44:45.137Z,12.93
2019-03-28T14:46:52.754Z,12.92
2019-03-28T14:49:00.580Z,12.63
2019-03-28T14:51:08.255Z,12.88
2019-03-28T14:53:17.156Z,12.63
2019-03-28T14:55:25.376Z,12.80
2019-03-28T14:57:34.085Z,12.82
2019-03-28T14:59:43.925Z,12.62
2019-03-28T15:01:51.603Z,12.52
2019-03-28T15:03:59.358Z,12.54
2019-03-28T15:06:07.088Z,12.84
2019-03-28T15:08:14.981Z,13.09
2019-03-28T15:10:22.580Z,13.17
2019-03-28T15:12:30.375Z,13.26
2019-03-28T15:14:38.073Z,13.25
2019-03-28T15:16:45.938Z,13.32
2019-03-28T15:18:53.764Z,13.33
2019-03-28T15:21:01.588Z,13.17
2019-03-28T15:23:09.929Z,12.94
2019-03-28T15:25:17.550Z,12.76
2019-03-28T15:27:25.244Z,12.60
2019-03-28T15:29:33.999Z,12.40
2019-03-28T15:31:41.785Z,12.54
2019-03-28T15:33:49.481Z,12.32
2019-03-28T15:35:57.141Z,12.04
2019-03-28T15:38:06.201Z,12.06
2019-03-28T15:40:14.319Z,12.22
2019-03-28T15:42:22.238Z,12.13
2019-03-28T15:44:29.950Z,12.04
2019-03-28T15:46:37.635Z,11.99
2019-03-28T15:48:45.376Z,12.12
2019-03-28T15:50:53.238Z,12.11
2019-03-28T15:53:00.912Z,11.96
2019-03-28T15:55:09.936Z,11.96
2019-03-28T15:57:18.991Z,12.04
2019-03-28T15:59:26.646Z,12.12
2019-03-28T16:01:34.521Z,12.15
2019-03-28T16:03:52.278Z,12.16
2019-03-28T16:05:58.265Z,12.02
2019-03-28T16:08:01.423Z,11.96
2019-03-28T16:10:14.723Z,11.96
2019-03-28T16:12:21.599Z,11.84
2019-03-28T16:14:29.357Z,11.79
2019-03-28T16:16:37.156Z,11.75
2019-03-28T16:18:44.850Z,11.68
2019-03-28T16:20:53.513Z,11.61
2019-03-28T16:23:01.329Z,11.41
2019-03-28T16:25:09.549Z,11.35
2019-03-28T16:27:17.208Z,11.27
2019-03-28T16:29:24.998Z,11.08
2019-03-28T16:31:32.688Z,11.11
2019-03-28T16:33:40.377Z,11.17
2019-03-28T16:35:48.098Z,11.04
2019-03-28T16:37:55.687Z,10.99
2019-03-28T16:40:04.126Z,11.02
2019-03-28T16:42:12.073Z,10.88
2019-03-28T16:44:19.761Z,10.84
2019-03-28T16:46:28.513Z,10.89
2019-03-28T16:48:36.403Z,10.94
2019-03-28T16:50:44.165Z,10.94
2019-03-28T16:52:51.857Z,10.92
2019-03-28T16:54:59.740Z,10.87
2019-03-28T16:57:07.536Z,10.70
2019-03-28T16:59:15.321Z,10.62
2019-03-28T17:01:23.013Z,10.58
2019-03-28T17:03:30.884Z,10.48
2019-03-28T17:05:39.911Z,10.41
2019-03-28T17:07:48.161Z,10.28
2019-03-28T17:09:56.751Z,10.13
2019-03-28T17:12:04.541Z,9.94
2019-03-28T17:14:12.377Z,9.83
2019-03-28T17:16:20.197Z,9.82
2019-03-28T17:18:27.918Z,9.83
2019-03-28T17:20:35.897Z,9.91
2019-03-28T17:22:43.552Z,9.89
2019-03-28T17:24:51.314Z,9.91
2019-03-28T17:27:00.213Z,9.98
2019-03-28T17:29:09.015Z,10.02
2019-03-28T17:31:16.677Z,9.91
2019-03-28T17:33:24.671Z,9.93
2019-03-28T17:35:32.393Z,9.91
2019-03-28T17:37:40.260Z,9.82
2019-03-28T17:39:48.186Z,9.72
2019-03-28T17:41:57.652Z,9.67
2019-03-28T17:44:06.593Z,9.63
2019-03-28T17:46:16.482Z,9.58
2019-03-28T17:48:24.207Z,9.54
2019-03-28T17:50:31.899Z,9.44
2019-03-28T17:52:39.631Z,9.40
2019-03-28T17:54:47.257Z,9.39
2019-03-28T17:56:56.120Z,9.33
2019-03-28T17:59:03.724Z,9.28
2019-03-28T18:01:11.715Z,9.27
2019-03-28T18:03:30.492Z,9.21
2019-03-28T18:05:29.034Z,9.16
2019-03-28T18:07:36.716Z,9.05
2019-03-28T18:09:44.460Z,8.99
2019-03-28T18:11:52.231Z,8.94
2019-03-28T18:14:00.216Z,8.92
2019-03-28T18:16:08.035Z,8.85
2019-03-28T18:18:15.864Z,8.80
2019-03-28T18:20:23.617Z,8.62
2019-03-28T18:22:31.264Z,8.53
2019-03-28T18:24:38.981Z,8.47
2019-03-28T18:26:46.733Z,8.33
2019-03-28T18:28:55.553Z,8.33
2019-03-28T18:31:03.246Z,8.32
2019-03-28T18:33:11.291Z,8.30
2019-03-28T18:35:19.131Z,8.26
2019-03-28T18:37:26.930Z,8.24
2019-03-28T18:39:34.627Z,8.25
2019-03-28T18:41:42.395Z,8.25
2019-03-28T18:43:50.347Z,8.28
2019-03-28T18:45:58.200Z,8.23
2019-03-28T18:48:08.887Z,8.30
2019-03-28T18:50:17.097Z,8.30
2019-03-28T18:52:24.782Z,8.23
2019-03-28T18:54:32.465Z,8.22
2019-03-28T18:56:40.315Z,8.20
2019-03-28T18:58:48.168Z,8.18
2019-03-28T19:00:56.009Z,8.30
2019-03-28T19:03:03.747Z,8.37
2019-03-28T19:05:19.524Z,8.50
2019-03-28T19:07:21.358Z,8.49
2019-03-28T19:09:29.146Z,8.45
2019-03-28T19:11:36.870Z,8.36
2019-03-28T19:13:44.690Z,8.28
2019-03-28T19:15:52.490Z,8.19
2019-03-28T19:18:00.221Z,8.12
2019-03-28T19:20:09.872Z,8.07
2019-03-28T19:22:17.702Z,7.99
2019-03-28T19:24:25.775Z,7.88
2019-03-28T19:26:33.465Z,7.79
2019-03-28T19:28:41.803Z,7.73
2019-03-28T19:30:49.525Z,7.67
2019-03-28T19:32:57.307Z,7.60
2019-03-28T19:35:08.233Z,7.52
2019-03-28T19:37:17.164Z,7.45
2019-03-28T19:39:30.938Z,7.37
2019-03-28T19:41:38.659Z,7.30
2019-03-28T19:43:46.901Z,7.20
2019-03-28T19:45:54.600Z,7.12
2019-03-28T19:48:02.566Z,7.07
2019-03-28T19:50:13.505Z,7.02
2019-03-28T19:52:21.198Z,6.95
2019-03-28T19:54:29.854Z,6.74
2019-03-28T19:56:37.455Z,6.76
2019-03-28T19:58:45.153Z,6.77
2019-03-28T20:00:53.041Z,6.80
2019-03-28T20:03:02.274Z,6.77
2019-03-28T20:05:10.689Z,6.74
2019-03-28T20:07:21.806Z,6.72
2019-03-28T20:09:27.998Z,6.71
2019-03-28T20:11:36.777Z,6.65
2019-03-28T20:13:44.779Z,6.59
2019-03-28T20:15:52.661Z,6.55
2019-03-28T20:18:00.431Z,6.45
2019-03-28T20:20:09.887Z,6.43
2019-03-28T20:22:17.636Z,6.32
2019-03-28T20:24:25.239Z,6.22
2019-03-28T20:26:33.040Z,6.15
2019-03-28T20:28:40.740Z,6.06
2019-03-28T20:30:48.508Z,5.98
2019-03-28T20:32:57.094Z,5.99
2019-03-28T20:35:05.769Z,5.99
2019-03-28T20:37:14.725Z,5.88
2019-03-28T20:39:22.817Z,5.82
2019-03-28T20:41:30.513Z,5.77
2019-03-28T20:43:38.223Z,5.71
2019-03-28T20:45:46.166Z,5.68
2019-03-28T20:47:54.002Z,5.63
2019-03-28T20:50:02.970Z,5.58
2019-03-28T20:52:10.765Z,5.57
2019-03-28T20:54:19.412Z,5.54
2019-03-28T20:56:27.185Z,5.54
2019-03-28T20:58:34.926Z,5.50
2019-03-28T21:00:45.635Z,5.48
2019-03-28T21:02:53.582Z,5.45
2019-03-28T21:05:01.415Z,5.42
2019-03-28T21:07:09.157Z,5.39
2019-03-28T21:09:16.934Z,5.36
2019-03-28T21:11:25.732Z,5.34
2019-03-28T21:13:33.626Z,5.27
2019-03-28T21:15:41.394Z,5.24
2019-03-28T21:17:49.243Z,5.20
2019-03-28T21:19:57.045Z,5.18
2019-03-28T21:22:05.959Z,5.17
2019-03-28T21:24:13.929Z,5.11
2019-03-28T21:26:21.768Z,5.07
2019-03-28T21:28:29.597Z,5.02
2019-03-28T21:30:47.189Z,4.91
2019-03-28T21:32:55.143Z,4.80
2019-03-28T21:34:59.391Z,4.70
2019-03-28T21:37:07.140Z,4.70
2019-03-28T21:39:14.984Z,4.61
2019-03-28T21:41:22.592Z,4.59
2019-03-28T21:43:30.932Z,4.56
2019-03-28T21:45:39.059Z,4.53
2019-03-28T21:47:46.928Z,4.50
2019-03-28T21:49:54.665Z,4.47
2019-03-28T21:52:02.534Z,4.46
2019-03-28T21:54:10.291Z,4.37
2019-03-28T21:56:18.029Z,4.37
2019-03-28T21:58:25.924Z,4.36
2019-03-28T22:00:33.673Z,4.35
2019-03-28T22:02:41.572Z,4.34
2019-03-28T22:04:49.342Z,4.26
2019-03-28T22:06:57.448Z,4.30
2019-03-28T22:09:07.378Z,4.30
2019-03-28T22:11:16.850Z,4.17
2019-03-28T22:13:24.837Z,4.14
2019-03-28T22:15:33.717Z,3.98
2019-03-28T22:17:42.093Z,3.95
2019-03-28T22:19:51.658Z,3.90
2019-03-28T22:21:59.773Z,3.81
2019-03-28T22:24:07.627Z,3.83
2019-03-28T22:26:15.457Z,3.83
2019-03-28T22:28:23.198Z,3.90
2019-03-28T22:30:31.028Z,3.90
2019-03-28T22:32:39.102Z,3.87
2019-03-28T22:34:46.852Z,3.83
2019-03-28T22:36:57.463Z,3.85
2019-03-28T22:39:07.217Z,3.83
2019-03-28T22:41:15.116Z,3.89
2019-03-28T22:43:22.716Z,3.95
2019-03-28T22:45:30.548Z,3.86
2019-03-28T22:47:38.428Z,3.92
2019-03-28T22:49:46.238Z,3.90
2019-03-28T22:51:54.150Z,4.00
2019-03-28T22:54:02.333Z,4.04
2019-03-28T22:56:10.261Z,4.03
2019-03-28T22:58:17.841Z,4.07
2019-03-28T23:00:41.037Z,4.08
2019-03-28T23:02:50.592Z,4.12
2019-03-28T23:04:58.364Z,4.08
2019-03-28T23:07:11.132Z,3.97
2019-03-28T23:09:15.790Z,4.00
2019-03-28T23:11:23.929Z,4.02
2019-03-28T23:13:31.790Z,4.05
2019-03-28T23:15:39.790Z,4.05
2019-03-28T23:17:47.559Z,4.04
2019-03-28T23:19:55.399Z,4.04
2019-03-28T23:22:03.164Z,4.02
2019-03-28T23:24:10.930Z,4.03
2019-03-28T23:26:19.059Z,3.99
2019-03-28T23:28:26.851Z,3.96
2019-03-28T23:30:34.768Z,3.94
2019-03-28T23:32:43.045Z,3.90
2019-03-28T23:34:51.028Z,3.83
2019-03-28T23:36:59.751Z,3.69
2019-03-28T23:39:08.650Z,3.45
2019-03-28T23:41:16.404Z,3.48
2019-03-28T23:43:24.107Z,3.43
2019-03-28T23:45:31.919Z,3.24
2019-03-28T23:47:41.253Z,3.19
2019-03-28T23:49:48.845Z,3.24
2019-03-28T23:51:56.760Z,3.35
2019-03-28T23:54:04.525Z,3.41
2019-03-28T23:56:12.289Z,3.43
2019-03-28T23:58:20.936Z,3.45
